createdAt,value
2016-08-15T00:00:06.370Z,95.1
2016-08-15T00:00:16.370Z,94.3
2016-08-15T00:00:25.620Z,94.5
2016-08-15T00:00:35.623Z,94.5
2016-08-15T00:00:46.372Z,94.5
2016-08-15T00:00:55.626Z,95.4
2016-08-15T00:01:06.372Z,95.1
2016-08-15T00:01:16.375Z,94.5
2016-08-15T00:01:25.631Z,94.9
2016-08-15T00:01:35.616Z,94.7
2016-08-15T00:01:45.616Z,94.3
2016-08-15T00:01:55.629Z,95.1
2016-08-15T00:02:06.371Z,95.4
2016-08-15T00:02:15.671Z,94.5
2016-08-15T00:02:26.375Z,94.9
2016-08-15T00:02:35.624Z,95.3
2016-08-15T00:02:46.374Z,95.3
2016-08-15T00:02:56.372Z,94.7
2016-08-15T00:03:06.374Z,94.9
2016-08-15T00:03:15.621Z,94.6
2016-08-15T00:03:25.622Z,94.8
2016-08-15T00:03:36.379Z,95
2016-08-15T00:03:46.369Z,94.5
2016-08-15T00:03:56.373Z,94.8
2016-08-15T00:04:06.375Z,94.7
2016-08-15T00:04:15.668Z,94.7
2016-08-15T00:04:26.372Z,94.9
2016-08-15T00:04:35.620Z,94.9
2016-08-15T00:04:46.369Z,94.8
2016-08-15T00:04:56.371Z,94.6
2016-08-15T00:05:05.616Z,94.2
2016-08-15T00:05:16.372Z,94.1
2016-08-15T00:05:26.376Z,94.9
2016-08-15T00:05:36.376Z,94.9
2016-08-15T00:05:46.375Z,94.9
2016-08-15T00:05:56.377Z,95
2016-08-15T00:06:06.372Z,94.9
2016-08-15T00:06:16.379Z,94.9
2016-08-15T00:06:26.381Z,94.5
2016-08-15T00:06:36.378Z,94.1
2016-08-15T00:06:46.380Z,94.2
2016-08-15T00:06:56.375Z,94.3
2016-08-15T00:07:06.375Z,94.3
2016-08-15T00:07:16.375Z,94.3
2016-08-15T00:07:26.374Z,94.3
2016-08-15T00:07:35.621Z,94.5
2016-08-15T00:07:46.372Z,94.6
2016-08-15T00:07:56.376Z,93.8
2016-08-15T00:08:06.378Z,93.7
2016-08-15T00:08:16.375Z,93.6
2016-08-15T00:08:26.377Z,93.5
2016-08-15T00:08:36.380Z,93.8
2016-08-15T00:08:46.377Z,93.6
2016-08-15T00:08:56.377Z,93.9
2016-08-15T00:09:06.375Z,93.7
2016-08-15T00:09:16.377Z,93.7
2016-08-15T00:09:26.379Z,93.8
2016-08-15T00:09:36.377Z,93.8
2016-08-15T00:09:45.625Z,93.7
2016-08-15T00:09:56.378Z,94
2016-08-15T00:10:06.376Z,93.3
2016-08-15T00:10:16.375Z,94.1
2016-08-15T00:10:26.383Z,94.1
2016-08-15T00:10:36.376Z,93.7
2016-08-15T00:10:46.383Z,93.9
2016-08-15T00:10:55.627Z,93.7
2016-08-15T00:11:05.621Z,94
2016-08-15T00:11:16.381Z,93.7
2016-08-15T00:11:25.622Z,93.7
2016-08-15T00:11:36.377Z,93.7
2016-08-15T00:11:45.624Z,93.7
2016-08-15T00:11:56.377Z,93.9
2016-08-15T00:12:06.386Z,93.6
2016-08-15T00:12:16.377Z,93.8
2016-08-15T00:12:26.379Z,93.9
2016-08-15T00:12:36.377Z,93.9
2016-08-15T00:12:46.377Z,93.9
2016-08-15T00:12:56.377Z,93.7
2016-08-15T00:13:06.378Z,93.7
2016-08-15T00:13:16.379Z,93.7
2016-08-15T00:13:26.379Z,93.7
2016-08-15T00:13:36.379Z,94.2
2016-08-15T00:13:46.381Z,93.8
2016-08-15T00:13:55.631Z,93.7
2016-08-15T00:14:06.377Z,93.7
2016-08-15T00:14:16.382Z,93.9
2016-08-15T00:14:26.378Z,94.1
2016-08-15T00:14:35.626Z,93.5
2016-08-15T00:14:46.382Z,94
2016-08-15T00:14:56.378Z,94.3
2016-08-15T00:15:05.629Z,93.7
2016-08-15T00:15:16.384Z,94.2
2016-08-15T00:15:26.378Z,93.6
2016-08-15T00:15:36.383Z,94.3
2016-08-15T00:15:46.381Z,93.5
2016-08-15T00:15:56.382Z,93.5
2016-08-15T00:16:05.626Z,94
2016-08-15T00:16:15.677Z,94
2016-08-15T00:16:26.381Z,94.1
2016-08-15T00:16:36.380Z,94.1
2016-08-15T00:16:45.626Z,93.4
2016-08-15T00:16:56.381Z,93.9
2016-08-15T00:17:06.380Z,93.7
2016-08-15T00:17:16.381Z,93.8
2016-08-15T00:17:26.381Z,93.9
2016-08-15T00:17:36.380Z,94.5
2016-08-15T00:17:45.629Z,94.6
2016-08-15T00:17:56.383Z,93.7
2016-08-15T00:18:06.382Z,93.7
2016-08-15T00:18:15.630Z,93.7
2016-08-15T00:18:26.383Z,93.7
2016-08-15T00:18:36.385Z,93.7
2016-08-15T00:18:46.383Z,94
2016-08-15T00:18:56.383Z,94
2016-08-15T00:19:06.385Z,93.9
2016-08-15T00:19:15.677Z,93.7
2016-08-15T00:19:26.382Z,93.7
2016-08-15T00:19:36.382Z,93.7
2016-08-15T00:19:46.387Z,93.7
2016-08-15T00:19:56.385Z,93.7
2016-08-15T00:20:06.388Z,93.7
2016-08-15T00:20:16.385Z,93.9
2016-08-15T00:20:26.386Z,93.7
2016-08-15T00:20:35.631Z,93.7
2016-08-15T00:20:46.384Z,93.6
2016-08-15T00:20:56.387Z,93.7
2016-08-15T00:21:06.384Z,93.8
2016-08-15T00:21:16.385Z,93.8
2016-08-15T00:21:26.385Z,93.9
2016-08-15T00:21:36.385Z,94
2016-08-15T00:21:46.387Z,94.1
2016-08-15T00:21:55.632Z,94.1
2016-08-15T00:22:06.384Z,94.1
2016-08-15T00:22:16.385Z,93.7
2016-08-15T00:22:26.385Z,93.7
2016-08-15T00:22:35.630Z,93.7
2016-08-15T00:22:45.632Z,94
2016-08-15T00:22:56.385Z,94.2
2016-08-15T00:23:06.387Z,94.1
2016-08-15T00:23:16.384Z,94
2016-08-15T00:23:25.633Z,94.1
2016-08-15T00:23:36.387Z,94.1
2016-08-15T00:23:46.387Z,94.1
2016-08-15T00:23:56.386Z,93.8
2016-08-15T00:24:06.391Z,94.1
2016-08-15T00:24:15.634Z,93.7
2016-08-15T00:24:26.387Z,93.7
2016-08-15T00:24:35.635Z,94
2016-08-15T00:24:46.385Z,94.3
2016-08-15T00:24:56.393Z,94.1
2016-08-15T00:25:06.391Z,93.8
2016-08-15T00:25:16.385Z,94.2
2016-08-15T00:25:25.634Z,94
2016-08-15T00:25:36.387Z,93.8
2016-08-15T00:25:46.388Z,94.1
2016-08-15T00:25:56.391Z,93.8
2016-08-15T00:26:06.386Z,93.9
2016-08-15T00:26:15.635Z,94
2016-08-15T00:26:26.387Z,94
2016-08-15T00:26:35.636Z,93.7
2016-08-15T00:26:46.387Z,93.8
2016-08-15T00:26:56.387Z,93.5
2016-08-15T00:27:06.390Z,93.9
2016-08-15T00:27:16.393Z,94.3
2016-08-15T00:27:26.386Z,94.3
2016-08-15T00:27:36.387Z,94.5
2016-08-15T00:27:46.387Z,93.8
2016-08-15T00:27:55.643Z,94
2016-08-15T00:28:06.392Z,94.2
2016-08-15T00:28:16.391Z,94.2
2016-08-15T00:28:25.635Z,94
2016-08-15T00:28:36.389Z,94.1
2016-08-15T00:28:46.397Z,93.4
2016-08-15T00:28:56.391Z,94.1
2016-08-15T00:29:06.390Z,93.6
2016-08-15T00:29:16.402Z,93.6
2016-08-15T00:29:25.635Z,93.5
2016-08-15T00:29:35.635Z,93.5
2016-08-15T00:29:46.392Z,94
2016-08-15T00:29:56.393Z,93.2
2016-08-15T00:30:05.637Z,94.1
2016-08-15T00:30:16.393Z,93.7
2016-08-15T00:30:26.391Z,93.8
2016-08-15T00:30:36.392Z,93.8
2016-08-15T00:30:46.389Z,93.7
2016-08-15T00:30:56.393Z,93.7
2016-08-15T00:31:06.392Z,93.8
2016-08-15T00:31:16.391Z,93.7
2016-08-15T00:31:26.394Z,93.7
2016-08-15T00:31:36.393Z,94.1
2016-08-15T00:31:46.391Z,94.1
2016-08-15T00:31:56.395Z,93.6
2016-08-15T00:32:06.393Z,93.6
2016-08-15T00:32:16.390Z,93.6
2016-08-15T00:32:26.391Z,94.3
2016-08-15T00:32:36.393Z,94.2
2016-08-15T00:32:46.394Z,93.2
2016-08-15T00:32:56.391Z,94.1
2016-08-15T00:33:05.642Z,94.3
2016-08-15T00:33:16.391Z,93.5
2016-08-15T00:33:26.397Z,93.7
2016-08-15T00:33:36.397Z,93.6
2016-08-15T00:33:46.394Z,93.5
2016-08-15T00:33:56.395Z,93.5
2016-08-15T00:34:05.644Z,94
2016-08-15T00:34:16.397Z,94
2016-08-15T00:34:26.396Z,93.5
2016-08-15T00:34:36.394Z,93.5
2016-08-15T00:34:46.394Z,93.5
2016-08-15T00:34:56.397Z,93.5
2016-08-15T00:35:06.394Z,93.8
2016-08-15T00:35:16.399Z,93.7
2016-08-15T00:35:26.398Z,93.6
2016-08-15T00:35:36.395Z,93.5
2016-08-15T00:35:46.398Z,93.6
2016-08-15T00:35:56.394Z,93.5
2016-08-15T00:36:06.397Z,93.5
2016-08-15T00:36:16.403Z,94.1
2016-08-15T00:36:26.396Z,94.1
2016-08-15T00:36:36.400Z,93.5
2016-08-15T00:36:46.404Z,93.1
2016-08-15T00:36:56.397Z,94
2016-08-15T00:37:06.397Z,94
2016-08-15T00:37:16.395Z,93.4
2016-08-15T00:37:26.400Z,93.6
2016-08-15T00:37:36.397Z,94.1
2016-08-15T00:37:46.397Z,93.9
2016-08-15T00:37:56.398Z,94
2016-08-15T00:38:05.645Z,94
2016-08-15T00:38:16.399Z,94
2016-08-15T00:38:26.397Z,93.7
2016-08-15T00:38:35.648Z,93.7
2016-08-15T00:38:46.401Z,93.7
2016-08-15T00:38:56.398Z,93.7
2016-08-15T00:39:06.395Z,94.6
2016-08-15T00:39:16.397Z,94.7
2016-08-15T00:39:25.656Z,94.5
2016-08-15T00:39:36.398Z,93.9
2016-08-15T00:39:45.648Z,94.5
2016-08-15T00:39:56.399Z,93.6
2016-08-15T00:40:05.646Z,93.5
2016-08-15T00:40:16.398Z,93.7
2016-08-15T00:40:26.400Z,93.7
2016-08-15T00:40:36.402Z,94
2016-08-15T00:40:45.649Z,94
2016-08-15T00:40:56.398Z,94.1
2016-08-15T00:41:05.645Z,93.9
2016-08-15T00:41:15.645Z,93.6
2016-08-15T00:41:26.399Z,93.9
2016-08-15T00:41:36.399Z,93.7
2016-08-15T00:41:46.404Z,93.7
2016-08-15T00:41:56.400Z,93.8
2016-08-15T00:42:06.401Z,93.8
2016-08-15T00:42:15.650Z,94.6
2016-08-15T00:42:26.403Z,94.5
2016-08-15T00:42:36.401Z,93.7
2016-08-15T00:42:46.400Z,93.9
2016-08-15T00:42:56.402Z,94.3
2016-08-15T00:43:05.651Z,94.3
2016-08-15T00:43:16.402Z,94.3
2016-08-15T00:43:26.403Z,94
2016-08-15T00:43:36.403Z,94.2
2016-08-15T00:43:46.400Z,94
2016-08-15T00:43:55.652Z,93.6
2016-08-15T00:44:05.649Z,93.5
2016-08-15T00:44:16.406Z,93.5
2016-08-15T00:44:26.400Z,93.5
2016-08-15T00:44:36.403Z,93.6
2016-08-15T00:44:45.661Z,93.4
2016-08-15T00:44:56.407Z,93.8
2016-08-15T00:45:06.403Z,93.3
2016-08-15T00:45:16.403Z,93.6
2016-08-15T00:45:26.405Z,93.5
2016-08-15T00:45:35.652Z,93.8
2016-08-15T00:45:46.403Z,93.4
2016-08-15T00:45:56.407Z,93.3
2016-08-15T00:46:05.651Z,93.4
2016-08-15T00:46:16.406Z,93.2
2016-08-15T00:46:26.403Z,93.2
2016-08-15T00:46:36.407Z,93.1
2016-08-15T00:46:46.407Z,93.4
2016-08-15T00:46:56.406Z,93.4
2016-08-15T00:47:06.409Z,93.1
2016-08-15T00:47:15.649Z,93.1
2016-08-15T00:47:26.404Z,93.2
2016-08-15T00:47:35.651Z,93.2
2016-08-15T00:47:46.407Z,93.2
2016-08-15T00:47:56.406Z,93.2
2016-08-15T00:48:06.406Z,93.1
2016-08-15T00:48:15.657Z,93.1
2016-08-15T00:48:26.408Z,93
2016-08-15T00:48:35.655Z,93.3
2016-08-15T00:48:46.406Z,92.7
2016-08-15T00:48:56.412Z,93
2016-08-15T00:49:06.406Z,92.7
2016-08-15T00:49:16.416Z,93
2016-08-15T00:49:26.406Z,93.4
2016-08-15T00:49:36.407Z,93
2016-08-15T00:49:46.408Z,93
2016-08-15T00:49:56.408Z,93
2016-08-15T00:50:06.415Z,93.3
2016-08-15T00:50:16.410Z,93.3
2016-08-15T00:50:26.410Z,93.3
2016-08-15T00:50:36.410Z,93.2
2016-08-15T00:50:46.409Z,93.1
2016-08-15T00:50:56.407Z,92.5
2016-08-15T00:51:06.409Z,92.5
2016-08-15T00:51:16.411Z,92.9
2016-08-15T00:51:26.407Z,92.8
2016-08-15T00:51:35.657Z,92.9
2016-08-15T00:51:45.660Z,93.2
2016-08-15T00:51:56.411Z,93
2016-08-15T00:52:05.665Z,92.2
2016-08-15T00:52:16.413Z,92.5
2016-08-15T00:52:26.412Z,92.4
2016-08-15T00:52:36.409Z,92.4
2016-08-15T00:52:46.410Z,93
2016-08-15T00:52:56.411Z,92.9
2016-08-15T00:53:06.408Z,92.9
2016-08-15T00:53:16.422Z,92.9
2016-08-15T00:53:26.415Z,92.6
2016-08-15T00:53:36.412Z,93
2016-08-15T00:53:46.409Z,92.4
2016-08-15T00:53:56.415Z,92.6
2016-08-15T00:54:06.413Z,92.8
2016-08-15T00:54:16.413Z,92.6
2016-08-15T00:54:26.410Z,92.7
2016-08-15T00:54:36.410Z,92.6
2016-08-15T00:54:46.411Z,92.2
2016-08-15T00:54:56.410Z,92.4
2016-08-15T00:55:06.413Z,92.1
2016-08-15T00:55:16.416Z,92.2
2016-08-15T00:55:26.415Z,92.2
2016-08-15T00:55:36.416Z,91.8
2016-08-15T00:55:46.413Z,92.7
2016-08-15T00:55:56.419Z,92.4
2016-08-15T00:56:06.413Z,92.4
2016-08-15T00:56:16.415Z,92.6
2016-08-15T00:56:26.414Z,92.5
2016-08-15T00:56:36.416Z,93.2
2016-08-15T00:56:46.417Z,92.9
2016-08-15T00:56:56.415Z,92.8
2016-08-15T00:57:06.414Z,92.8
2016-08-15T00:57:16.411Z,93.2
2016-08-15T00:57:26.417Z,93.9
2016-08-15T00:57:36.413Z,93.9
2016-08-15T00:57:46.417Z,93
2016-08-15T00:57:56.416Z,93.4
2016-08-15T00:58:05.661Z,93
2016-08-15T00:58:16.414Z,93.1
2016-08-15T00:58:26.417Z,93.2
2016-08-15T00:58:36.416Z,93.3
2016-08-15T00:58:46.419Z,93.8
2016-08-15T00:58:56.415Z,93.5
2016-08-15T00:59:06.418Z,93.7
2016-08-15T00:59:16.417Z,93.7
2016-08-15T00:59:26.415Z,93.8
2016-08-15T00:59:35.665Z,93.7
2016-08-15T00:59:46.417Z,93.7
2016-08-15T00:59:56.419Z,93.8
2016-08-15T01:00:06.419Z,93.7
2016-08-15T01:00:16.416Z,93.7
2016-08-15T01:00:25.661Z,94.2
2016-08-15T01:00:35.667Z,94.1
2016-08-15T01:00:46.417Z,94
2016-08-15T01:00:56.416Z,93.9
2016-08-15T01:01:05.666Z,93.2
2016-08-15T01:01:16.418Z,94.2
2016-08-15T01:01:26.421Z,94.1
2016-08-15T01:01:35.674Z,93.7
2016-08-15T01:01:46.417Z,93.8
2016-08-15T01:01:55.664Z,93.8
2016-08-15T01:02:06.417Z,93.7
2016-08-15T01:02:16.422Z,93.8
2016-08-15T01:02:25.667Z,93.8
2016-08-15T01:02:36.421Z,93.9
2016-08-15T01:02:46.421Z,93.9
2016-08-15T01:02:56.422Z,93.9
2016-08-15T01:03:06.423Z,93.8
2016-08-15T01:03:16.423Z,93.9
2016-08-15T01:03:25.667Z,93.7
2016-08-15T01:03:36.429Z,93.8
2016-08-15T01:03:46.422Z,94
2016-08-15T01:03:56.427Z,93.8
2016-08-15T01:04:06.420Z,93.5
2016-08-15T01:04:16.423Z,93.6
2016-08-15T01:04:25.672Z,94.2
2016-08-15T01:04:36.422Z,93.4
2016-08-15T01:04:45.670Z,94.4
2016-08-15T01:04:56.426Z,93.8
2016-08-15T01:05:05.679Z,93.9
2016-08-15T01:05:16.423Z,94.4
2016-08-15T01:05:26.426Z,94.5
2016-08-15T01:05:35.673Z,94.4
2016-08-15T01:05:46.423Z,94.5
2016-08-15T01:05:56.427Z,94.5
2016-08-15T01:06:06.423Z,94.4
2016-08-15T01:06:16.425Z,94.1
2016-08-15T01:06:26.423Z,93.7
2016-08-15T01:06:36.424Z,93.6
2016-08-15T01:06:46.425Z,93.9
2016-08-15T01:06:55.671Z,93.8
2016-08-15T01:07:05.673Z,93.6
2016-08-15T01:07:16.426Z,93.4
2016-08-15T01:07:26.424Z,93.7
2016-08-15T01:07:36.426Z,93.6
2016-08-15T01:07:46.429Z,93.7
2016-08-15T01:07:56.426Z,93.7
2016-08-15T01:08:06.427Z,93.7
2016-08-15T01:08:16.429Z,93.7
2016-08-15T01:08:26.428Z,93.3
2016-08-15T01:08:36.429Z,93.8
2016-08-15T01:08:45.672Z,93.5
2016-08-15T01:08:55.678Z,94.2
2016-08-15T01:09:06.427Z,93.7
2016-08-15T01:09:16.429Z,93.8
2016-08-15T01:09:26.428Z,94.2
2016-08-15T01:09:36.429Z,94
2016-08-15T01:09:46.427Z,93.9
2016-08-15T01:09:56.430Z,93.3
2016-08-15T01:10:06.429Z,93.3
2016-08-15T01:10:16.428Z,93.8
2016-08-15T01:10:26.426Z,94.1
2016-08-15T01:10:36.432Z,93.8
2016-08-15T01:10:45.679Z,93.9
2016-08-15T01:10:55.675Z,93.9
2016-08-15T01:11:06.429Z,93.8
2016-08-15T01:11:16.430Z,94.3
2016-08-15T01:11:26.430Z,93.7
2016-08-15T01:11:36.429Z,93.6
2016-08-15T01:11:46.432Z,93.9
2016-08-15T01:11:56.430Z,93.4
2016-08-15T01:12:05.688Z,93.4
2016-08-15T01:12:16.429Z,93.8
2016-08-15T01:12:26.433Z,93.6
2016-08-15T01:12:36.433Z,93.6
2016-08-15T01:12:46.433Z,93.2
2016-08-15T01:12:55.677Z,94.2
2016-08-15T01:13:06.432Z,94.1
2016-08-15T01:13:15.682Z,94.1
2016-08-15T01:13:26.434Z,93.8
2016-08-15T01:13:36.431Z,93.8
2016-08-15T01:13:45.679Z,94.2
2016-08-15T01:13:56.439Z,94.1
2016-08-15T01:14:06.433Z,94.1
2016-08-15T01:14:16.434Z,94
2016-08-15T01:14:26.435Z,94.3
2016-08-15T01:14:36.433Z,93.7
2016-08-15T01:14:46.436Z,93.8
2016-08-15T01:14:56.436Z,94.3
2016-08-15T01:15:06.434Z,94
2016-08-15T01:15:15.680Z,93.8
2016-08-15T01:15:26.434Z,94.3
2016-08-15T01:15:36.438Z,94.5
2016-08-15T01:15:46.437Z,94.4
2016-08-15T01:15:55.681Z,94.2
2016-08-15T01:16:06.439Z,94.3
2016-08-15T01:16:15.680Z,94.3
2016-08-15T01:16:26.437Z,94.5
2016-08-15T01:16:36.436Z,95
2016-08-15T01:16:45.681Z,94.9
2016-08-15T01:16:56.439Z,95
2016-08-15T01:17:05.685Z,94.7
2016-08-15T01:17:16.436Z,94.7
2016-08-15T01:17:26.435Z,94.5
2016-08-15T01:17:35.684Z,94.7
2016-08-15T01:17:46.438Z,94.7
2016-08-15T01:17:56.446Z,94.8
2016-08-15T01:18:06.437Z,94.2
2016-08-15T01:18:16.440Z,94.3
2016-08-15T01:18:26.443Z,94.4
2016-08-15T01:18:36.442Z,94.3
2016-08-15T01:18:46.442Z,94.2
2016-08-15T01:18:56.437Z,94.2
2016-08-15T01:19:06.442Z,94.3
2016-08-15T01:19:16.442Z,94.4
2016-08-15T01:19:26.440Z,94.1
2016-08-15T01:19:36.442Z,94.6
2016-08-15T01:19:45.690Z,95
2016-08-15T01:19:55.689Z,95
2016-08-15T01:20:05.688Z,94.7
2016-08-15T01:20:15.688Z,94.8
2016-08-15T01:20:26.440Z,94.9
2016-08-15T01:20:36.441Z,95.2
2016-08-15T01:20:46.442Z,94.3
2016-08-15T01:20:56.443Z,94.2
2016-08-15T01:21:06.445Z,94.9
2016-08-15T01:21:15.689Z,94.9
2016-08-15T01:21:25.691Z,94.7
2016-08-15T01:21:36.444Z,94.7
2016-08-15T01:21:46.444Z,94.5
2016-08-15T01:21:56.443Z,94.4
2016-08-15T01:22:05.691Z,94.5
2016-08-15T01:22:15.687Z,94.5
2016-08-15T01:22:25.687Z,94.7
2016-08-15T01:22:36.443Z,94.9
2016-08-15T01:22:46.441Z,94.8
2016-08-15T01:22:56.445Z,94.5
2016-08-15T01:23:06.445Z,94.9
2016-08-15T01:23:16.446Z,94.7
2016-08-15T01:23:26.446Z,95
2016-08-15T01:23:36.447Z,94.8
2016-08-15T01:23:45.695Z,94.5
2016-08-15T01:23:55.691Z,95
2016-08-15T01:24:05.691Z,94.5
2016-08-15T01:24:16.445Z,94.5
2016-08-15T01:24:25.691Z,94.7
2016-08-15T01:24:35.693Z,94.5
2016-08-15T01:24:46.448Z,94.8
2016-08-15T01:24:55.693Z,94.8
2016-08-15T01:25:06.453Z,95.1
2016-08-15T01:25:16.447Z,94.4
2016-08-15T01:25:26.450Z,94.5
2016-08-15T01:25:35.700Z,94.2
2016-08-15T01:25:45.693Z,94.3
2016-08-15T01:25:56.449Z,94.2
2016-08-15T01:26:05.696Z,94.2
2016-08-15T01:26:16.447Z,95
2016-08-15T01:26:26.450Z,94.7
2016-08-15T01:26:35.696Z,94.8
2016-08-15T01:26:46.450Z,94.9
2016-08-15T01:26:56.449Z,94.9
2016-08-15T01:27:05.699Z,94.2
2016-08-15T01:27:16.449Z,94.5
2016-08-15T01:27:25.697Z,94.3
2016-08-15T01:27:35.697Z,94.3
2016-08-15T01:27:45.700Z,94.2
2016-08-15T01:27:56.452Z,94.2
2016-08-15T01:28:06.451Z,94.3
2016-08-15T01:28:15.699Z,94.3
2016-08-15T01:28:26.452Z,94.3
2016-08-15T01:28:36.454Z,94.2
2016-08-15T01:28:46.455Z,94.6
2016-08-15T01:28:55.699Z,94.5
2016-08-15T01:29:06.452Z,94.5
2016-08-15T01:29:16.453Z,94.3
2016-08-15T01:29:25.701Z,94.4
2016-08-15T01:29:36.453Z,94.4
2016-08-15T01:29:46.452Z,93.9
2016-08-15T01:29:56.454Z,94
2016-08-15T01:30:06.453Z,93.6
2016-08-15T01:30:16.455Z,93.4
2016-08-15T01:30:26.456Z,93.8
2016-08-15T01:30:35.699Z,93.7
2016-08-15T01:30:46.459Z,94.1
2016-08-15T01:30:55.700Z,94
2016-08-15T01:31:05.702Z,93.8
2016-08-15T01:31:16.459Z,94.2
2016-08-15T01:31:26.461Z,94
2016-08-15T01:31:36.455Z,94.3
2016-08-15T01:31:46.454Z,93.9
2016-08-15T01:31:56.455Z,94.3
2016-08-15T01:32:06.456Z,94
2016-08-15T01:32:16.458Z,93.8
2016-08-15T01:32:26.457Z,94.5
2016-08-15T01:32:35.711Z,94.4
2016-08-15T01:32:45.702Z,94.3
2016-08-15T01:32:56.463Z,94.5
2016-08-15T01:33:06.457Z,94.3
2016-08-15T01:33:16.460Z,93.9
2016-08-15T01:33:26.459Z,94.4
2016-08-15T01:33:36.462Z,94.4
2016-08-15T01:33:46.462Z,94.4
2016-08-15T01:33:56.461Z,94.3
2016-08-15T01:34:06.461Z,94.4
2016-08-15T01:34:16.459Z,94.4
2016-08-15T01:34:25.707Z,94.4
2016-08-15T01:34:36.459Z,94.4
2016-08-15T01:34:46.462Z,94.1
2016-08-15T01:34:56.458Z,95
2016-08-15T01:35:05.712Z,94.9
2016-08-15T01:35:16.465Z,94.7
2016-08-15T01:35:26.459Z,95.1
2016-08-15T01:35:35.707Z,94.5
2016-08-15T01:35:46.460Z,94.6
2016-08-15T01:35:56.461Z,94.9
2016-08-15T01:36:05.712Z,94.7
2016-08-15T01:36:16.466Z,94.6
2016-08-15T01:36:26.466Z,94.8
2016-08-15T01:36:36.463Z,94.8
2016-08-15T01:36:46.465Z,94.8
2016-08-15T01:36:56.465Z,94.5
2016-08-15T01:37:06.468Z,94.5
2016-08-15T01:37:16.465Z,94.3
2016-08-15T01:37:25.727Z,93.9
2016-08-15T01:37:36.465Z,94.3
2016-08-15T01:37:45.713Z,94.4
2016-08-15T01:37:56.466Z,94.2
2016-08-15T01:38:06.465Z,94.5
2016-08-15T01:38:16.467Z,94.3
2016-08-15T01:38:26.464Z,93.9
2016-08-15T01:38:35.712Z,93.8
2016-08-15T01:38:46.467Z,94.5
2016-08-15T01:38:56.467Z,94.3
2016-08-15T01:39:06.468Z,94.4
2016-08-15T01:39:16.468Z,94.6
2016-08-15T01:39:26.469Z,94.9
2016-08-15T01:39:35.718Z,94.9
2016-08-15T01:39:46.468Z,94
2016-08-15T01:39:56.468Z,94.4
2016-08-15T01:40:06.475Z,93.8
2016-08-15T01:40:16.468Z,93.8
2016-08-15T01:40:26.472Z,93.8
2016-08-15T01:40:36.471Z,93.8
2016-08-15T01:40:46.468Z,94.3
2016-08-15T01:40:56.474Z,94.4
2016-08-15T01:41:06.471Z,94.5
2016-08-15T01:41:16.471Z,94.5
2016-08-15T01:41:26.468Z,94.2
2016-08-15T01:41:36.469Z,94.5
2016-08-15T01:41:46.471Z,94.5
2016-08-15T01:41:55.720Z,94.4
2016-08-15T01:42:06.471Z,94.4
2016-08-15T01:42:16.471Z,94.5
2016-08-15T01:42:26.478Z,94.5
2016-08-15T01:42:36.475Z,94.1
2016-08-15T01:42:46.473Z,94.2
2016-08-15T01:42:56.474Z,94.4
2016-08-15T01:43:06.474Z,94.4
2016-08-15T01:43:16.475Z,94.4
2016-08-15T01:43:26.473Z,94.2
2016-08-15T01:43:35.719Z,94.4
2016-08-15T01:43:45.720Z,93.8
2016-08-15T01:43:56.474Z,93.8
2016-08-15T01:44:05.725Z,93.4
2016-08-15T01:44:16.472Z,93.6
2016-08-15T01:44:26.474Z,93.8
2016-08-15T01:44:36.475Z,93.8
2016-08-15T01:44:46.480Z,93.1
2016-08-15T01:44:56.477Z,93.6
2016-08-15T01:45:06.477Z,93.4
2016-08-15T01:45:16.476Z,93.6
2016-08-15T01:45:26.478Z,93.8
2016-08-15T01:45:36.474Z,93.6
2016-08-15T01:45:46.478Z,93.7
2016-08-15T01:45:55.726Z,94
2016-08-15T01:46:06.474Z,94.1
2016-08-15T01:46:16.479Z,93.3
2016-08-15T01:46:26.481Z,94.3
2016-08-15T01:46:36.478Z,94.4
2016-08-15T01:46:46.480Z,94.2
2016-08-15T01:46:56.489Z,93.8
2016-08-15T01:47:06.478Z,93.8
2016-08-15T01:47:16.481Z,94.4
2016-08-15T01:47:26.479Z,94.4
2016-08-15T01:47:36.479Z,94.2
2016-08-15T01:47:46.483Z,94.4
2016-08-15T01:47:56.481Z,93.9
2016-08-15T01:48:06.484Z,93.8
2016-08-15T01:48:15.727Z,93.8
2016-08-15T01:48:26.481Z,93.8
2016-08-15T01:48:35.729Z,94.5
2016-08-15T01:48:46.480Z,94.4
2016-08-15T01:48:56.484Z,94.2
2016-08-15T01:49:06.482Z,94.2
2016-08-15T01:49:16.478Z,93.8
2016-08-15T01:49:26.490Z,93.7
2016-08-15T01:49:36.487Z,93.3
2016-08-15T01:49:45.729Z,93.7
2016-08-15T01:49:56.487Z,93.7
2016-08-15T01:50:06.485Z,93.7
2016-08-15T01:50:16.483Z,93.5
2016-08-15T01:50:26.487Z,92.9
2016-08-15T01:50:36.491Z,92.6
2016-08-15T01:50:46.486Z,93
2016-08-15T01:50:56.491Z,92.7
2016-08-15T01:51:06.487Z,92.7
2016-08-15T01:51:15.732Z,93.2
2016-08-15T01:51:26.485Z,93.1
2016-08-15T01:51:35.731Z,92.6
2016-08-15T01:51:45.732Z,93.1
2016-08-15T01:51:56.487Z,93.2
2016-08-15T01:52:06.486Z,93.2
2016-08-15T01:52:16.487Z,93.3
2016-08-15T01:52:25.741Z,93.4
2016-08-15T01:52:36.487Z,93.3
2016-08-15T01:52:46.484Z,93.2
2016-08-15T01:52:56.487Z,93
2016-08-15T01:53:06.487Z,93.2
2016-08-15T01:53:16.488Z,93.8
2016-08-15T01:53:26.494Z,93.2
2016-08-15T01:53:36.490Z,93
2016-08-15T01:53:46.495Z,93.3
2016-08-15T01:53:56.489Z,93.4
2016-08-15T01:54:06.502Z,93.4
2016-08-15T01:54:16.489Z,93.8
2016-08-15T01:54:26.493Z,94.1
2016-08-15T01:54:35.738Z,93.8
2016-08-15T01:54:46.492Z,93.5
2016-08-15T01:54:56.495Z,93.7
2016-08-15T01:55:06.489Z,93.4
2016-08-15T01:55:16.493Z,93.9
2016-08-15T01:55:26.497Z,93.6
2016-08-15T01:55:36.492Z,93.8
2016-08-15T01:55:46.494Z,93.6
2016-08-15T01:55:55.737Z,93.7
2016-08-15T01:56:06.497Z,93.5
2016-08-15T01:56:15.738Z,94.1
2016-08-15T01:56:26.493Z,94.3
2016-08-15T01:56:35.738Z,94.2
2016-08-15T01:56:45.742Z,94.3
2016-08-15T01:56:56.495Z,93.5
2016-08-15T01:57:06.498Z,94
2016-08-15T01:57:15.742Z,93.7
2016-08-15T01:57:26.496Z,93.8
2016-08-15T01:57:35.747Z,93.5
2016-08-15T01:57:46.497Z,93.6
2016-08-15T01:57:55.742Z,93.4
2016-08-15T01:58:06.494Z,93.7
2016-08-15T01:58:16.496Z,93.7
2016-08-15T01:58:25.741Z,93.4
2016-08-15T01:58:36.497Z,93.7
2016-08-15T01:58:46.500Z,93.5
2016-08-15T01:58:56.498Z,93.8
2016-08-15T01:59:05.745Z,93.3
2016-08-15T01:59:16.497Z,93.5
2016-08-15T01:59:26.503Z,93.3
2016-08-15T01:59:35.744Z,92.8
2016-08-15T01:59:46.498Z,92.5
2016-08-15T01:59:55.745Z,92.5
2016-08-15T02:00:06.503Z,92.8
2016-08-15T02:00:15.747Z,92.8
2016-08-15T02:00:26.502Z,92.7
2016-08-15T02:00:35.745Z,93.2
2016-08-15T02:00:45.752Z,93.3
2016-08-15T02:00:56.498Z,93.2
2016-08-15T02:01:05.752Z,93.2
2016-08-15T02:01:16.501Z,93
2016-08-15T02:01:26.500Z,93.4
2016-08-15T02:01:35.751Z,93.3
2016-08-15T02:01:46.505Z,93.2
2016-08-15T02:01:56.500Z,92.6
2016-08-15T02:02:06.502Z,92.7
2016-08-15T02:02:15.750Z,92.9
2016-08-15T02:02:26.503Z,93.1
2016-08-15T02:02:36.503Z,92.8
2016-08-15T02:02:45.755Z,92.3
2016-08-15T02:02:56.504Z,92.5
2016-08-15T02:03:06.503Z,92.7
2016-08-15T02:03:15.752Z,92.8
2016-08-15T02:03:26.505Z,92.6
2016-08-15T02:03:35.751Z,92
2016-08-15T02:03:46.504Z,92.1
2016-08-15T02:03:56.509Z,92.2
2016-08-15T02:04:06.507Z,92.6
2016-08-15T02:04:16.504Z,92.6
2016-08-15T02:04:26.504Z,92.6
2016-08-15T02:04:35.754Z,92.9
2016-08-15T02:04:46.511Z,93.1
2016-08-15T02:04:55.755Z,93.2
2016-08-15T02:05:06.506Z,93.8
2016-08-15T02:05:16.512Z,93.8
2016-08-15T02:05:26.513Z,93.3
2016-08-15T02:05:35.755Z,93.4
2016-08-15T02:05:46.504Z,92.8
2016-08-15T02:05:56.510Z,92.7
2016-08-15T02:06:06.509Z,92.7
2016-08-15T02:06:16.513Z,93.1
2016-08-15T02:06:26.509Z,93.2
2016-08-15T02:06:36.509Z,92.9
2016-08-15T02:06:46.514Z,93.3
2016-08-15T02:06:56.509Z,93.2
2016-08-15T02:07:06.510Z,92.7
2016-08-15T02:07:16.513Z,93.3
2016-08-15T02:07:26.508Z,93.1
2016-08-15T02:07:36.510Z,93.1
2016-08-15T02:07:46.512Z,94.1
2016-08-15T02:07:56.510Z,93.4
2016-08-15T02:08:06.511Z,93.3
2016-08-15T02:08:16.513Z,93.2
2016-08-15T02:08:25.759Z,93.3
2016-08-15T02:08:36.514Z,93.2
2016-08-15T02:08:45.761Z,93.3
2016-08-15T02:08:55.758Z,93.4
2016-08-15T02:09:06.512Z,93.1
2016-08-15T02:09:16.517Z,92.9
2016-08-15T02:09:25.759Z,93.7
2016-08-15T02:09:36.511Z,93
2016-08-15T02:09:46.517Z,93.1
2016-08-15T02:09:56.519Z,92.8
2016-08-15T02:10:06.516Z,92.5
2016-08-15T02:10:15.759Z,93.3
2016-08-15T02:10:26.513Z,93.3
2016-08-15T02:10:36.518Z,93.8
2016-08-15T02:10:46.516Z,93.8
2016-08-15T02:10:56.516Z,94.1
2016-08-15T02:11:06.517Z,93.8
2016-08-15T02:11:16.516Z,94
2016-08-15T02:11:25.763Z,93.4
2016-08-15T02:11:36.516Z,93.4
2016-08-15T02:11:46.518Z,93.8
2016-08-15T02:11:56.519Z,93.8
2016-08-15T02:12:06.518Z,93.6
2016-08-15T02:12:15.766Z,93.3
2016-08-15T02:12:26.522Z,93.6
2016-08-15T02:12:35.771Z,93.6
2016-08-15T02:12:45.764Z,93.8
2016-08-15T02:12:55.768Z,93.4
2016-08-15T02:13:05.771Z,93.9
2016-08-15T02:13:16.519Z,93.4
2016-08-15T02:13:26.522Z,93.6
2016-08-15T02:13:36.516Z,93.9
2016-08-15T02:13:46.523Z,93.3
2016-08-15T02:13:56.523Z,93.2